Saint Bonnet de Bellac- Haute Vienne - France
Donnes mto: jeudi, 26/04/2012
Date Horaire Temp. E. Hum. E. P.atmo. Pluie Vent Direction Direction Ensoleilleme Solaire P. de rose Temp au vent Rafales
26/04/2012 00:00 8,1 C 94 % 999,4 hPa 0,0 mm 4,0 km/h (1 Bft) S-SO 202 0 min 0 W/m 7,2 C 8,1 C 6,1 km/h (2 Bft)
26/04/2012 00:10 8,1 C 94 % 999,4 hPa 0,0 mm 8,3 km/h (2 Bft) O-SO 247 0 min 0 W/m 7,2 C 6,7 C 12,6 km/h (3 Bft)
26/04/2012 00:20 8,1 C 94 % 999,2 hPa 0,1 mm 4,3 km/h (1 Bft) S 180 0 min 0 W/m 7,2 C 8,1 C 7,6 km/h (2 Bft)
26/04/2012 00:30 8,1 C 94 % 999,1 hPa 0,0 mm 5,0 km/h (1 Bft) S 180 0 min 0 W/m 7,2 C 7,6 C 5,8 km/h (2 Bft)
26/04/2012 00:40 8,1 C 94 % 999,2 hPa 0,1 mm 4,0 km/h (1 Bft) SO 225 0 min 0 W/m 7,2 C 8,1 C 7,9 km/h (2 Bft)
26/04/2012 00:50 8,1 C 94 % 999,5 hPa 0,0 mm 6,1 km/h (2 Bft) S-SO 202 0 min 0 W/m 7,2 C 7,3 C 6,1 km/h (2 Bft)
26/04/2012 01:00 8,1 C 94 % 999,4 hPa 0,0 mm 4,7 km/h (1 Bft) SO 225 0 min 0 W/m 7,2 C 7,7 C 6,5 km/h (2 Bft)
26/04/2012 01:10 8,0 C 94 % 999,3 hPa 0,0 mm 5,4 km/h (2 Bft) S-SO 202 0 min 0 W/m 7,1 C 7,4 C 6,5 km/h (2 Bft)
26/04/2012 01:20 7,9 C 93 % 999,2 hPa 0,0 mm 5,0 km/h (1 Bft) S-SE 157 0 min 0 W/m 6,8 C 7,4 C 9,0 km/h (2 Bft)
26/04/2012 01:30 7,9 C 93 % 999,3 hPa 0,0 mm 9,0 km/h (2 Bft) S-SE 157 0 min 0 W/m 6,8 C 6,3 C 9,0 km/h (2 Bft)
26/04/2012 01:40 7,9 C 93 % 999,8 hPa 0,0 mm 4,0 km/h (1 Bft) S-SO 202 0 min 0 W/m 6,8 C 7,9 C 9,7 km/h (2 Bft)
26/04/2012 01:50 7,9 C 93 % 999,7 hPa 0,0 mm 4,0 km/h (1 Bft) S-SO 202 0 min 0 W/m 6,8 C 7,9 C 9,7 km/h (2 Bft)
26/04/2012 02:00 7,9 C 93 % 1000,1 hPa 0,1 mm 4,0 km/h (1 Bft) N 360 0 min 0 W/m 6,8 C 7,9 C 4,0 km/h (1 Bft)
26/04/2012 02:10 7,9 C 93 % 1000,2 hPa 0,0 mm 4,0 km/h (1 Bft) N 360 0 min 0 W/m 6,8 C 7,9 C 4,0 km/h (1 Bft)
26/04/2012 02:20 7,9 C 93 % 1000,2 hPa 0,0 mm 4,0 km/h (1 Bft) N 360 0 min 0 W/m 6,8 C 7,9 C 4,0 km/h (1 Bft)
26/04/2012 02:30 7,9 C 93 % 1000,2 hPa 0,0 mm 7,2 km/h (2 Bft) S 180 0 min 0 W/m 6,8 C 6,7 C 7,2 km/h (2 Bft)
26/04/2012 02:40 7,9 C 93 % 1000,2 hPa 0,0 mm 7,2 km/h (2 Bft) S 180 0 min 0 W/m 6,8 C 6,7 C 7,2 km/h (2 Bft)
26/04/2012 02:50 8,2 C 92 % 1000,6 hPa 0,1 mm 6,1 km/h (2 Bft) SO 225 0 min 0 W/m 7,0 C 7,4 C 9,0 km/h (2 Bft)
26/04/2012 03:02 8,2 C 93 % 1000,7 hPa 0,1 mm 10,1 km/h (2 Bft) S-SO 202 0 min 0 W/m 7,1 C 6,5 C 16,6 km/h (3 Bft)
26/04/2012 03:10 8,1 C 92 % 1000,8 hPa 0,1 mm 6,5 km/h (2 Bft) SO 225 0 min 0 W/m 6,9 C 7,1 C 10,1 km/h (2 Bft)
26/04/2012 03:20 8,1 C 92 % 1000,7 hPa 0,1 mm 6,1 km/h (2 Bft) S-SE 157 0 min 0 W/m 6,9 C 7,3 C 7,9 km/h (2 Bft)
26/04/2012 03:30 8,1 C 92 % 1000,2 hPa 0,0 mm 8,6 km/h (2 Bft) S 180 0 min 0 W/m 6,9 C 6,6 C 12,2 km/h (2 Bft)
26/04/2012 03:40 8,1 C 92 % 1000,2 hPa 0,0 mm 6,1 km/h (2 Bft) SO 225 0 min 0 W/m 6,9 C 7,3 C 12,6 km/h (3 Bft)
26/04/2012 03:50 8,1 C 92 % 1000,3 hPa 0,0 mm 9,0 km/h (2 Bft) S 180 0 min 0 W/m 6,9 C 6,6 C 10,8 km/h (2 Bft)
26/04/2012 04:00 8,1 C 92 % 1000,6 hPa 0,0 mm 9,4 km/h (2 Bft) S-SO 202 0 min 0 W/m 6,9 C 6,5 C 11,9 km/h (2 Bft)
26/04/2012 04:10 8,1 C 92 % 1000,6 hPa 0,0 mm 7,2 km/h (2 Bft) S-SO 202 0 min 0 W/m 6,9 C 7,0 C 9,4 km/h (2 Bft)
26/04/2012 04:20 8,1 C 92 % 1000,7 hPa 0,0 mm 7,2 km/h (2 Bft) N 360 0 min 0 W/m 6,9 C 7,0 C 7,2 km/h (2 Bft)
26/04/2012 04:30 8,1 C 92 % 1000,7 hPa 0,0 mm 7,2 km/h (2 Bft) N 360 0 min 0 W/m 6,9 C 7,0 C 7,2 km/h (2 Bft)
26/04/2012 04:40 8,1 C 92 % 1000,7 hPa 0,0 mm 6,1 km/h (2 Bft) S-SO 202 0 min 0 W/m 6,9 C 7,3 C 10,4 km/h (2 Bft)
26/04/2012 04:50 8,1 C 92 % 1000,7 hPa 0,1 mm 6,1 km/h (2 Bft) S-SO 202 0 min 0 W/m 6,9 C 7,3 C 10,4 km/h (2 Bft)
26/04/2012 05:00 8,1 C 92 % 1001,0 hPa 0,0 mm 6,8 km/h (2 Bft) S 180 0 min 0 W/m 6,9 C 7,1 C 13,3 km/h (3 Bft)
26/04/2012 05:10 8,1 C 92 % 1001,1 hPa 0,0 mm 6,8 km/h (2 Bft) S 180 0 min 0 W/m 6,9 C 7,1 C 13,3 km/h (3 Bft)
26/04/2012 05:20 8,1 C 92 % 1001,3 hPa 0,0 mm 6,1 km/h (2 Bft) S-SO 202 0 min 0 W/m 6,9 C 7,3 C 11,2 km/h (2 Bft)
26/04/2012 05:30 8,1 C 92 % 1001,3 hPa 0,0 mm 15,5 km/h (3 Bft) S-SE 157 0 min 0 W/m 6,9 C 5,5 C 21,6 km/h (4 Bft)
26/04/2012 05:40 8,1 C 92 % 1001,4 hPa 0,1 mm 13,0 km/h (3 Bft) S-SO 202 0 min 0 W/m 6,9 C 5,9 C 15,1 km/h (3 Bft)
26/04/2012 05:50 8,1 C 92 % 1001,4 hPa 0,0 mm 9,0 km/h (2 Bft) S 180 0 min 0 W/m 6,9 C 6,6 C 15,1 km/h (3 Bft)
26/04/2012 06:00 8,1 C 92 % 1001,3 hPa 0,0 mm 9,0 km/h (2 Bft) S 180 0 min 0 W/m 6,9 C 6,6 C 15,1 km/h (3 Bft)
26/04/2012 06:10 8,1 C 92 % 1001,5 hPa 0,0 mm 9,0 km/h (2 Bft) N 360 0 min 0 W/m 6,9 C 6,6 C 9,0 km/h (2 Bft)
26/04/2012 06:20 8,3 C 93 % 1001,7 hPa 0,0 mm 6,5 km/h (2 Bft) SO 225 0 min 0 W/m 7,2 C 7,4 C 10,1 km/h (2 Bft)
26/04/2012 06:30 8,3 C 93 % 1002,0 hPa 0,0 mm 6,5 km/h (2 Bft) S-SO 202 0 min 0 W/m 7,2 C 7,4 C 9,4 km/h (2 Bft)
26/04/2012 06:40 8,3 C 93 % 1001,8 hPa 0,0 mm 7,2 km/h (2 Bft) S 180 0 min 0 W/m 7,2 C 7,2 C 7,2 km/h (2 Bft)
26/04/2012 06:50 8,3 C 93 % 1002,0 hPa 0,1 mm 8,3 km/h (2 Bft) SO 225 0 min 0 W/m 7,2 C 6,9 C 14,8 km/h (3 Bft)
26/04/2012 07:00 8,3 C 93 % 1002,1 hPa 0,0 mm 7,9 km/h (2 Bft) S 180 0 min 0 W/m 7,2 C 7,0 C 16,2 km/h (3 Bft)
26/04/2012 07:10 8,3 C 92 % 1002,0 hPa 0,1 mm 5,0 km/h (1 Bft) S-SO 202 2 min 0 W/m 7,1 C 7,8 C 9,0 km/h (2 Bft)
26/04/2012 07:20 8,3 C 93 % 1002,4 hPa 0,0 mm 11,5 km/h (2 Bft) S-SO 202 2 min 0 W/m 7,2 C 6,3 C 18,4 km/h (3 Bft)
26/04/2012 07:30 8,3 C 92 % 1002,5 hPa 0,0 mm 9,4 km/h (2 Bft) SE 135 2 min 0 W/m 7,1 C 6,7 C 17,3 km/h (3 Bft)
26/04/2012 07:40 8,4 C 92 % 1002,6 hPa 0,0 mm 7,9 km/h (2 Bft) S 180 2 min 0 W/m 7,2 C 7,2 C 7,9 km/h (2 Bft)
26/04/2012 07:50 8,4 C 92 % 1002,9 hPa 0,0 mm 9,0 km/h (2 Bft) S-SE 157 2 min 0 W/m 7,2 C 6,9 C 16,2 km/h (3 Bft)
26/04/2012 08:00 8,5 C 92 % 1002,7 hPa 0,0 mm 13,3 km/h (3 Bft) S-SE 157 2 min 0 W/m 7,3 C 6,3 C 21,2 km/h (4 Bft)
26/04/2012 08:10 8,5 C 92 % 1003,3 hPa 0,0 mm 13,3 km/h (3 Bft) S-SE 157 2 min 0 W/m 7,3 C 6,3 C 21,2 km/h (4 Bft)
26/04/2012 08:20 8,5 C 92 % 1003,4 hPa 0,0 mm 13,3 km/h (3 Bft) N 360 2 min 0 W/m 7,3 C 6,3 C 13,3 km/h (3 Bft)
26/04/2012 08:30 8,5 C 92 % 1003,2 hPa 0,0 mm 13,3 km/h (3 Bft) N 360 2 min 0 W/m 7,3 C 6,3 C 13,3 km/h (3 Bft)
26/04/2012 08:40 8,5 C 92 % 1003,4 hPa 0,0 mm 13,3 km/h (3 Bft) N 360 2 min 0 W/m 7,3 C 6,3 C 13,3 km/h (3 Bft)
26/04/2012 08:50 8,8 C 92 % 1003,9 hPa 0,0 mm 10,1 km/h (2 Bft) S 180 2 min 0 W/m 7,6 C 7,2 C 12,6 km/h (3 Bft)
26/04/2012 09:00 8,8 C 91 % 1003,5 hPa 0,0 mm 6,8 km/h (2 Bft) SE 135 2 min 0 W/m 7,4 C 7,9 C 6,8 km/h (2 Bft)
26/04/2012 09:10 8,8 C 92 % 1004,4 hPa 0,0 mm 9,7 km/h (2 Bft) S-SE 157 2 min 0 W/m 7,6 C 7,3 C 9,7 km/h (2 Bft)
26/04/2012 09:20 8,9 C 91 % 1003,9 hPa 0,0 mm 6,5 km/h (2 Bft) S 180 2 min 0 W/m 7,5 C 8,1 C 9,0 km/h (2 Bft)
26/04/2012 09:30 8,9 C 91 % 1004,4 hPa 0,0 mm 11,5 km/h (2 Bft) S-SO 202 2 min 0 W/m 7,5 C 7,1 C 21,2 km/h (4 Bft)
26/04/2012 09:40 8,9 C 90 % 1004,4 hPa 0,0 mm 3,6 km/h (1 Bft) S 180 2 min 0 W/m 7,4 C 8,9 C 6,8 km/h (2 Bft)
26/04/2012 09:50 9,0 C 89 % 1004,6 hPa 0,0 mm 8,3 km/h (2 Bft) S 180 2 min 0 W/m 7,3 C 7,8 C 13,0 km/h (3 Bft)
26/04/2012 10:00 9,1 C 89 % 1004,7 hPa 0,0 mm 9,7 km/h (2 Bft) SO 225 2 min 0 W/m 7,4 C 7,6 C 13,7 km/h (3 Bft)
26/04/2012 10:10 9,2 C 89 % 1004,9 hPa 0,0 mm 8,3 km/h (2 Bft) E-SE 112 2 min 0 W/m 7,5 C 8,0 C 14,0 km/h (3 Bft)
26/04/2012 10:20 9,3 C 88 % 1005,0 hPa 0,0 mm 5,8 km/h (2 Bft) S 180 2 min 0 W/m 7,4 C 8,7 C 7,2 km/h (2 Bft)
26/04/2012 10:30 9,3 C 87 % 1005,0 hPa 0,0 mm 7,6 km/h (2 Bft) S 180 2 min 0 W/m 7,2 C 8,3 C 7,6 km/h (2 Bft)
26/04/2012 10:40 9,4 C 87 % 1005,1 hPa 0,0 mm 7,2 km/h (2 Bft) S-SO 202 2 min 0 W/m 7,3 C 8,5 C 10,4 km/h (2 Bft)
26/04/2012 10:50 9,5 C 87 % 1005,1 hPa 0,0 mm 3,2 km/h (1 Bft) S-SE 157 2 min 0 W/m 7,4 C 9,5 C 6,5 km/h (2 Bft)
26/04/2012 11:00 9,6 C 87 % 1005,3 hPa 0,0 mm 6,8 km/h (2 Bft) S-SE 157 2 min 0 W/m 7,5 C 8,8 C 10,8 km/h (2 Bft)
26/04/2012 11:10 9,9 C 87 % 1005,6 hPa 0,0 mm 6,8 km/h (2 Bft) S-SE 157 2 min 0 W/m 7,8 C 9,2 C 7,9 km/h (2 Bft)
26/04/2012 11:20 10,2 C 87 % 1005,8 hPa 0,0 mm 7,9 km/h (2 Bft) S-SO 202 2 min 0 W/m 8,1 C 10,2 C 11,9 km/h (2 Bft)
26/04/2012 11:30 10,5 C 87 % 1005,8 hPa 0,0 mm 5,8 km/h (2 Bft) S-SO 202 2 min 0 W/m 8,4 C 10,5 C 7,9 km/h (2 Bft)
26/04/2012 11:40 10,9 C 86 % 1006,0 hPa 0,0 mm 7,2 km/h (2 Bft) S 180 2 min 0 W/m 8,7 C 10,9 C 11,2 km/h (2 Bft)
26/04/2012 11:50 11,4 C 85 % 1006,1 hPa 0,0 mm 5,8 km/h (2 Bft) S-SO 202 2 min 0 W/m 9,0 C 11,4 C 10,1 km/h (2 Bft)
26/04/2012 12:00 11,9 C 83 % 1006,3 hPa 0,0 mm 9,7 km/h (2 Bft) S-SE 157 2 min 0 W/m 9,1 C 11,9 C 14,0 km/h (3 Bft)
26/04/2012 12:10 12,3 C 81 % 1006,4 hPa 0,0 mm 3,6 km/h (1 Bft) S 180 2 min 0 W/m 9,1 C 12,3 C 3,6 km/h (1 Bft)
26/04/2012 12:20 12,6 C 77 % 1006,4 hPa 0,1 mm 9,7 km/h (2 Bft) S-SO 202 2 min 0 W/m 8,7 C 12,6 C 10,1 km/h (2 Bft)
26/04/2012 12:30 13,0 C 77 % 1006,4 hPa 0,0 mm 10,8 km/h (2 Bft) S 180 2 min 0 W/m 9,1 C 13,0 C 16,9 km/h (3 Bft)
26/04/2012 12:40 13,2 C 76 % 1006,6 hPa 0,0 mm 6,8 km/h (2 Bft) S-SO 202 2 min 0 W/m 9,1 C 13,2 C 6,8 km/h (2 Bft)
26/04/2012 12:50 13,3 C 77 % 1006,7 hPa 0,0 mm 7,9 km/h (2 Bft) SO 225 2 min 0 W/m 9,4 C 13,3 C 10,8 km/h (2 Bft)
26/04/2012 13:00 13,1 C 76 % 1006,8 hPa 0,0 mm 10,8 km/h (2 Bft) S 180 2 min 0 W/m 9,0 C 13,1 C 13,3 km/h (3 Bft)
26/04/2012 13:10 12,8 C 76 % 1007,2 hPa 0,0 mm 8,3 km/h (2 Bft) S-SO 202 2 min 0 W/m 8,7 C 12,8 C 9,4 km/h (2 Bft)
26/04/2012 13:20 12,4 C 79 % 1007,2 hPa 0,0 mm 5,4 km/h (2 Bft) S-SO 202 2 min 0 W/m 8,9 C 12,4 C 5,4 km/h (2 Bft)
26/04/2012 13:30 12,0 C 81 % 1007,1 hPa 0,0 mm 12,6 km/h (3 Bft) S-SO 202 2 min 0 W/m 8,8 C 12,0 C 18,4 km/h (3 Bft)
26/04/2012 13:40 11,7 C 83 % 1007,1 hPa 0,0 mm 12,6 km/h (3 Bft) S 180 2 min 0 W/m 8,9 C 11,7 C 23,0 km/h (4 Bft)
26/04/2012 13:50 11,6 C 83 % 1007,2 hPa 0,0 mm 4,7 km/h (1 Bft) S 180 2 min 0 W/m 8,8 C 11,6 C 8,3 km/h (2 Bft)
26/04/2012 14:00 11,4 C 84 % 1007,0 hPa 0,0 mm 4,7 km/h (1 Bft) S-SO 202 2 min 0 W/m 8,8 C 11,4 C 4,7 km/h (1 Bft)
26/04/2012 14:10 11,4 C 84 % 1007,0 hPa 0,0 mm 8,3 km/h (2 Bft) S 180 2 min 0 W/m 8,8 C 11,4 C 8,3 km/h (2 Bft)
26/04/2012 14:20 11,4 C 85 % 1007,3 hPa 0,0 mm 6,8 km/h (2 Bft) S-SO 202 2 min 0 W/m 9,0 C 11,4 C 10,1 km/h (2 Bft)
26/04/2012 14:30 11,3 C 86 % 1007,4 hPa 0,0 mm 4,7 km/h (1 Bft) S-SO 202 2 min 0 W/m 9,0 C 11,3 C 4,7 km/h (1 Bft)
26/04/2012 14:40 11,4 C 87 % 1007,4 hPa 0,1 mm 9,7 km/h (2 Bft) S 180 2 min 0 W/m 9,3 C 11,4 C 14,0 km/h (3 Bft)
26/04/2012 14:50 11,4 C 88 % 1007,4 hPa 0,0 mm 13,3 km/h (3 Bft) S-SO 202 2 min 0 W/m 9,5 C 11,4 C 13,3 km/h (3 Bft)
26/04/2012 15:00 11,5 C 88 % 1007,5 hPa 0,0 mm 11,5 km/h (2 Bft) S 180 2 min 0 W/m 9,6 C 11,5 C 13,0 km/h (3 Bft)
26/04/2012 15:10 11,5 C 88 % 1007,6 hPa 0,0 mm 9,0 km/h (2 Bft) SE 135 2 min 0 W/m 9,6 C 11,5 C 11,5 km/h (2 Bft)
26/04/2012 15:20 11,6 C 88 % 1007,8 hPa 0,0 mm 6,1 km/h (2 Bft) S-SO 202 2 min 0 W/m 9,7 C 11,6 C 8,3 km/h (2 Bft)
26/04/2012 15:30 12,1 C 86 % 1007,8 hPa 0,0 mm 7,2 km/h (2 Bft) S-SO 202 2 min 0 W/m 9,8 C 12,1 C 9,7 km/h (2 Bft)
26/04/2012 15:40 12,3 C 85 % 1007,8 hPa 0,0 mm 11,5 km/h (2 Bft) S-SO 202 2 min 0 W/m 9,9 C 12,3 C 11,5 km/h (2 Bft)
26/04/2012 15:50 12,3 C 84 % 1007,7 hPa 0,0 mm 7,2 km/h (2 Bft) SO 225 2 min 0 W/m 9,7 C 12,3 C 13,0 km/h (3 Bft)
26/04/2012 16:00 12,4 C 84 % 1007,9 hPa 0,0 mm 9,7 km/h (2 Bft) S-SO 202 2 min 0 W/m 9,8 C 12,4 C 12,6 km/h (3 Bft)
26/04/2012 16:10 12,4 C 82 % 1007,9 hPa 0,0 mm 15,1 km/h (3 Bft) E-SE 112 2 min 0 W/m 9,4 C 12,4 C 21,6 km/h (4 Bft)
26/04/2012 16:20 12,3 C 83 % 1008,1 hPa 0,0 mm 9,7 km/h (2 Bft) SO 225 2 min 0 W/m 9,5 C 12,3 C 13,7 km/h (3 Bft)
26/04/2012 16:30 12,1 C 83 % 1008,2 hPa 0,0 mm 7,2 km/h (2 Bft) S-SO 202 2 min 0 W/m 9,3 C 12,1 C 11,9 km/h (2 Bft)
26/04/2012 16:40 12,1 C 83 % 1008,1 hPa 0,0 mm 7,9 km/h (2 Bft) S-SO 202 2 min 0 W/m 9,3 C 12,1 C 16,6 km/h (3 Bft)
26/04/2012 16:50 11,9 C 83 % 1008,1 hPa 0,0 mm 6,8 km/h (2 Bft) S-SO 202 2 min 0 W/m 9,1 C 11,9 C 15,1 km/h (3 Bft)
26/04/2012 17:00 12,0 C 83 % 1008,1 hPa 0,0 mm 4,7 km/h (1 Bft) S-SO 202 2 min 0 W/m 9,2 C 12,0 C 9,4 km/h (2 Bft)
26/04/2012 17:10 12,2 C 83 % 1008,1 hPa 0,0 mm 7,6 km/h (2 Bft) S-SO 202 2 min 0 W/m 9,4 C 12,2 C 15,5 km/h (3 Bft)
26/04/2012 17:20 12,3 C 83 % 1008,2 hPa 0,0 mm 8,6 km/h (2 Bft) S 180 2 min 0 W/m 9,5 C 12,3 C 10,4 km/h (2 Bft)
26/04/2012 17:30 12,3 C 83 % 1008,1 hPa 0,0 mm 7,2 km/h (2 Bft) S-SE 157 2 min 0 W/m 9,5 C 12,3 C 7,9 km/h (2 Bft)
26/04/2012 17:40 12,4 C 83 % 1008,2 hPa 0,0 mm 6,5 km/h (2 Bft) S 180 2 min 0 W/m 9,6 C 12,4 C 6,8 km/h (2 Bft)
26/04/2012 17:50 12,3 C 85 % 1008,2 hPa 0,0 mm 7,6 km/h (2 Bft) S 180 2 min 0 W/m 9,9 C 12,3 C 11,2 km/h (2 Bft)
26/04/2012 18:00 12,1 C 84 % 1008,3 hPa 0,0 mm 8,3 km/h (2 Bft) E-SE 112 2 min 0 W/m 9,5 C 12,1 C 13,7 km/h (3 Bft)
26/04/2012 18:10 11,9 C 83 % 1008,0 hPa 0,0 mm 1,1 km/h (1 Bft) S-SE 157 2 min 0 W/m 9,1 C 11,9 C 7,9 km/h (2 Bft)
26/04/2012 18:20 11,8 C 84 % 1008,5 hPa 0,0 mm 11,9 km/h (2 Bft) S 180 2 min 0 W/m 9,2 C 11,8 C 13,3 km/h (3 Bft)
26/04/2012 18:30 11,7 C 84 % 1008,5 hPa 0,0 mm 11,9 km/h (2 Bft) S-SE 157 2 min 0 W/m 9,1 C 11,7 C 11,9 km/h (2 Bft)
26/04/2012 18:40 11,6 C 84 % 1008,6 hPa 0,0 mm 7,6 km/h (2 Bft) SE 135 2 min 0 W/m 9,0 C 11,6 C 16,6 km/h (3 Bft)
26/04/2012 18:50 11,6 C 84 % 1008,6 hPa 0,0 mm 6,8 km/h (2 Bft) S 180 2 min 0 W/m 9,0 C 11,6 C 10,4 km/h (2 Bft)
26/04/2012 19:00 11,5 C 83 % 1008,7 hPa 0,0 mm 9,0 km/h (2 Bft) S-SO 202 2 min 0 W/m 8,7 C 11,5 C 14,0 km/h (3 Bft)
26/04/2012 19:10 11,5 C 84 % 1008,8 hPa 0,0 mm 7,6 km/h (2 Bft) S-SE 157 2 min 0 W/m 8,9 C 11,5 C 10,8 km/h (2 Bft)
26/04/2012 19:20 11,4 C 84 % 1008,8 hPa 0,0 mm 4,0 km/h (1 Bft) S-SO 202 2 min 0 W/m 8,8 C 11,4 C 7,9 km/h (2 Bft)
26/04/2012 19:30 11,3 C 85 % 1009,0 hPa 0,0 mm 8,3 km/h (2 Bft) S-SO 202 2 min 0 W/m 8,9 C 11,3 C 14,4 km/h (3 Bft)
26/04/2012 19:40 11,3 C 85 % 1008,8 hPa 0,0 mm 11,2 km/h (2 Bft) SE 135 2 min 0 W/m 8,9 C 11,3 C 14,4 km/h (3 Bft)
26/04/2012 19:50 11,3 C 85 % 1008,5 hPa 0,0 mm 11,2 km/h (2 Bft) SE 135 2 min 0 W/m 8,9 C 11,3 C 14,4 km/h (3 Bft)
26/04/2012 20:00 10,9 C 87 % 1008,6 hPa 0,0 mm 6,1 km/h (2 Bft) S 180 2 min 0 W/m 8,8 C 10,9 C 8,3 km/h (2 Bft)
26/04/2012 20:10 10,9 C 87 % 1009,1 hPa 0,0 mm 3,2 km/h (1 Bft) SO 225 2 min 0 W/m 8,8 C 10,9 C 7,9 km/h (2 Bft)
26/04/2012 20:20 10,8 C 86 % 1009,0 hPa 0,0 mm 7,2 km/h (2 Bft) S-SO 202 2 min 0 W/m 8,6 C 10,8 C 11,2 km/h (2 Bft)
26/04/2012 20:30 10,6 C 87 % 1009,1 hPa 0,0 mm 6,8 km/h (2 Bft) S-SE 157 2 min 0 W/m 8,5 C 10,6 C 6,8 km/h (2 Bft)
26/04/2012 20:40 10,6 C 87 % 1009,1 hPa 0,1 mm 2,5 km/h (1 Bft) S-SO 202 2 min 0 W/m 8,5 C 10,6 C 6,1 km/h (2 Bft)
26/04/2012 20:50 10,3 C 87 % 1009,4 hPa 0,1 mm 8,6 km/h (2 Bft) SE 135 0 min 0 W/m 8,2 C 10,3 C 15,8 km/h (3 Bft)
26/04/2012 21:00 10,2 C 87 % 1009,5 hPa 0,1 mm 4,7 km/h (1 Bft) S-SE 157 0 min 0 W/m 8,1 C 10,2 C 9,0 km/h (2 Bft)
26/04/2012 21:10 10,1 C 87 % 1009,8 hPa 0,1 mm 6,5 km/h (2 Bft) S-SO 202 0 min 0 W/m 8,0 C 10,1 C 10,1 km/h (2 Bft)
26/04/2012 21:20 10,1 C 87 % 1010,1 hPa 0,2 mm 6,5 km/h (2 Bft) S-SO 202 0 min 0 W/m 8,0 C 10,1 C 10,1 km/h (2 Bft)
26/04/2012 21:30 9,6 C 90 % 1010,4 hPa 0,1 mm 7,2 km/h (2 Bft) S-SO 202 0 min 0 W/m 8,0 C 8,7 C 13,3 km/h (3 Bft)
26/04/2012 21:40 9,5 C 90 % 1010,7 hPa 0,2 mm 7,6 km/h (2 Bft) S-SO 202 0 min 0 W/m 7,9 C 8,5 C 11,9 km/h (2 Bft)
26/04/2012 21:50 9,4 C 90 % 1010,9 hPa 0,2 mm 4,0 km/h (1 Bft) S 180 0 min 0 W/m 7,8 C 9,4 C 4,0 km/h (1 Bft)
26/04/2012 22:00 9,4 C 91 % 1011,0 hPa 0,2 mm 7,2 km/h (2 Bft) S 180 0 min 0 W/m 8,0 C 8,5 C 13,0 km/h (3 Bft)
26/04/2012 22:10 9,3 C 91 % 1011,2 hPa 0,2 mm 7,6 km/h (2 Bft) SO 225 0 min 0 W/m 7,9 C 8,3 C 7,6 km/h (2 Bft)
26/04/2012 22:20 9,3 C 92 % 1011,3 hPa 0,2 mm 6,5 km/h (2 Bft) S-SO 202 0 min 0 W/m 8,1 C 8,5 C 10,1 km/h (2 Bft)
26/04/2012 22:30 9,2 C 92 % 1011,5 hPa 0,1 mm 5,8 km/h (2 Bft) S-SE 157 0 min 0 W/m 8,0 C 8,6 C 10,8 km/h (2 Bft)
26/04/2012 22:40 9,3 C 92 % 1011,6 hPa 0,2 mm 7,6 km/h (2 Bft) S-SO 202 0 min 0 W/m 8,1 C 8,3 C 13,3 km/h (3 Bft)
26/04/2012 22:50 9,2 C 92 % 1011,7 hPa 0,1 mm 4,7 km/h (1 Bft) S-SE 157 0 min 0 W/m 8,0 C 8,9 C 4,7 km/h (1 Bft)
26/04/2012 23:00 9,2 C 93 % 1011,8 hPa 0,1 mm 7,6 km/h (2 Bft) S 180 0 min 0 W/m 8,1 C 8,2 C 7,6 km/h (2 Bft)
26/04/2012 23:10 9,1 C 93 % 1011,9 hPa 0,1 mm 4,0 km/h (1 Bft) S-SO 202 0 min 0 W/m 8,0 C 9,1 C 6,5 km/h (2 Bft)
26/04/2012 23:20 9,1 C 93 % 1011,9 hPa 0,1 mm 6,1 km/h (2 Bft) S-SE 157 0 min 0 W/m 8,0 C 8,4 C 7,9 km/h (2 Bft)
26/04/2012 23:30 9,1 C 93 % 1012,2 hPa 0,1 mm 8,6 km/h (2 Bft) S-SO 202 0 min 0 W/m 8,0 C 7,8 C 13,3 km/h (3 Bft)
26/04/2012 23:40 9,0 C 93 % 1012,4 hPa 0,3 mm 6,8 km/h (2 Bft) SE 135 0 min 0 W/m 7,9 C 8,1 C 10,1 km/h (2 Bft)
26/04/2012 23:50 8,9 C 93 % 1012,4 hPa 0,1 mm 5,8 km/h (2 Bft) S-SE 157 0 min 0 W/m 7,8 C 8,3 C 10,1 km/h (2 Bft)
_ Min-Heure 02:40 13:10 00:30 - 18:10 - - - - 02:40 05:30 12:10
Minimum _ 7,9 C 76 % 999,1 hPa - 1,1 km/h (1 Bft) - - - - 6,8 C 5,5 C 3,6 km/h (1 Bft)
_ Max-Heure 12:50 01:10 23:50 23:40 05:30 - - 20:40 23:50 17:50 12:50 13:40
Maximum _ 13,3 C 94 % 1012,4 hPa 0,3 mm 15,5 km/h
S-SE (3 Bft)
- - 2 min 0 W/m 9,9 C 13,3 C 23,0 km/h
S (4 Bft)
Moyenne _ 9,9 C 88 % 1005,4 hPa #4,4 mm 7,6 km/h (2 Bft) S-SO - #2:44 h 0 W/m 8,0 C 9,3 C 11,0 km/h (2 Bft)
Saint Bonnet de Bellac- Haute Vienne - France